Time;durP1;ratioP1;P1;durP2;ratioP2;P2;SDS_P1;SDS_P2;PMS_P1;PMS_P2;Temp;Humidity;BMP_temperature;BMP_pressure;BME280_temperature;BME280_humidity;BME280_pressure;Samples;Min_cycle;Max_cycle;Signal;HPM_P1;HPM_P2
2023/02/09 00:01:52;;;;;;;23.30;8.80;;;;;;;5.89;75.74;102353.75;5035019;28;20444;-65
2023/02/09 00:04:18;;;;;;;20.02;8.48;;;;;;;5.85;75.51;102352.31;5052896;28;20040;-65
2023/02/09 00:06:43;;;;;;;24.80;10.00;;;;;;;5.96;74.93;102338.97;5052707;28;20120;-65
2023/02/09 00:09:09;;;;;;;24.75;8.05;;;;;;;5.93;74.67;102330.31;5052674;28;20037;-65
2023/02/09 00:14:20;;;;;;;22.77;8.87;;;;;;;5.92;74.11;102321.44;5052868;28;20082;-65
2023/02/09 00:16:46;;;;;;;21.35;7.95;;;;;;;5.94;73.75;102322.19;5051339;28;20029;-65
2023/02/09 00:19:12;;;;;;;24.80;8.77;;;;;;;5.90;73.74;102307.38;5055196;28;20035;-64
2023/02/09 00:21:39;;;;;;;21.60;9.07;;;;;;;5.87;73.73;102288.94;5059962;28;20529;-64
2023/02/09 00:24:06;;;;;;;23.80;7.85;;;;;;;5.94;73.62;102292.81;5053515;28;20048;-64
2023/02/09 00:26:32;;;;;;;23.50;8.88;;;;;;;5.97;73.24;102294.38;5051378;28;20494;-65
2023/02/09 00:28:58;;;;;;;22.42;7.82;;;;;;;5.92;73.23;102288.53;5051832;28;20051;-65
2023/02/09 00:31:25;;;;;;;20.20;7.70;;;;;;;5.87;73.34;102292.47;5052669;28;20049;-65
2023/02/09 00:33:51;;;;;;;18.88;7.68;;;;;;;5.81;73.56;102281.44;5052566;28;20078;-64
2023/02/09 00:36:16;;;;;;;23.23;8.48;;;;;;;5.89;73.14;102287.84;5051007;28;20039;-64
2023/02/09 00:38:43;;;;;;;19.05;8.52;;;;;;;5.95;72.93;102280.28;5050678;28;20040;-65
2023/02/09 00:41:10;;;;;;;25.90;8.98;;;;;;;5.91;72.84;102278.84;5049157;28;20032;-65
2023/02/09 00:43:35;;;;;;;26.55;9.23;;;;;;;5.87;72.62;102275.59;5034358;28;20055;-64
2023/02/09 00:46:01;;;;;;;26.27;9.65;;;;;;;5.84;72.74;102257.16;5052398;28;20488;-65
2023/02/09 00:48:27;;;;;;;23.83;9.10;;;;;;;5.94;72.49;102267.91;5051347;28;20566;-65
2023/02/09 00:50:53;;;;;;;25.98;8.80;;;;;;;5.83;72.32;102266.16;5055790;28;20465;-65
2023/02/09 00:53:19;;;;;;;24.58;8.52;;;;;;;5.85;72.64;102259.66;5050544;28;20047;-65
2023/02/09 00:55:45;;;;;;;24.40;9.32;;;;;;;5.81;72.22;102262.75;5052293;28;20036;-65
2023/02/09 00:58:11;;;;;;;25.42;9.52;;;;;;;5.84;72.04;102246.47;5054881;28;20395;-65
2023/02/09 01:00:36;;;;;;;21.90;8.48;;;;;;;5.89;71.99;102246.91;5053866;28;20036;-65
2023/02/09 01:03:02;;;;;;;20.33;8.27;;;;;;;5.81;71.95;102244.91;5034872;28;20106;-65
2023/02/09 01:05:27;;;;;;;19.35;8.88;;;;;;;5.84;72.34;102233.09;5050881;28;20447;-65
2023/02/09 01:07:53;;;;;;;23.98;9.02;;;;;;;5.88;71.98;102239.88;5052921;28;20483;-65
2023/02/09 01:10:18;;;;;;;23.27;8.95;;;;;;;5.91;71.67;102228.91;5035407;28;20055;-65
2023/02/09 01:12:44;;;;;;;27.60;9.57;;;;;;;5.96;71.84;102226.75;5050695;28;20083;-65
2023/02/09 01:15:10;;;;;;;22.88;8.77;;;;;;;5.89;71.89;102222.84;5050542;28;20103;-65
2023/02/09 01:17:36;;;;;;;22.02;8.27;;;;;;;5.87;72.33;102219.50;5050263;28;20451;-69
2023/02/09 01:20:02;;;;;;;18.15;7.65;;;;;;;5.83;72.22;102234.09;5050963;28;20017;-65
2023/02/09 01:22:28;;;;;;;23.17;8.68;;;;;;;5.87;72.10;102227.50;5051788;28;20088;-65
2023/02/09 01:24:53;;;;;;;20.08;8.75;;;;;;;5.85;72.15;102229.44;5050226;28;20380;-65
2023/02/09 01:27:19;;;;;;;30.30;9.45;;;;;;;5.87;71.74;102227.50;5049595;28;20276;-65
2023/02/09 01:29:45;;;;;;;22.40;8.85;;;;;;;5.83;71.89;102231.44;5051706;28;20443;-65
2023/02/09 01:32:10;;;;;;;28.73;9.30;;;;;;;5.94;71.61;102227.84;5033807;28;20526;-64
2023/02/09 01:34:36;;;;;;;34.78;8.77;;;;;;;5.87;71.79;102232.84;5051458;28;20029;-65
2023/02/09 01:37:02;;;;;;;25.08;8.68;;;;;;;5.82;72.29;102221.69;5051826;28;20028;-66
2023/02/09 01:39:27;;;;;;;24.25;9.02;;;;;;;5.71;72.41;102216.44;5050875;28;20033;-64
2023/02/09 01:41:53;;;;;;;24.85;9.60;;;;;;;5.60;72.87;102209.38;5050477;28;20048;-64
2023/02/09 01:44:18;;;;;;;27.17;9.57;;;;;;;5.79;72.30;102212.13;5050178;28;20032;-65
2023/02/09 01:46:43;;;;;;;22.95;9.55;;;;;;;5.67;72.82;102188.31;5053646;28;20025;-65
2023/02/09 01:49:14;;;;;;;24.48;8.73;;;;;;;5.79;72.53;102200.59;5054977;28;20033;-65
2023/02/09 01:51:44;;;;;;;23.58;9.48;;;;;;;5.71;72.04;102195.94;5054930;28;20453;-65
2023/02/09 01:54:15;;;;;;;28.15;9.73;;;;;;;5.81;72.70;102191.47;5054659;28;20031;-65
2023/02/09 01:56:44;;;;;;;23.85;9.50;;;;;;;5.83;73.18;102168.16;5054903;28;20025;-65
2023/02/09 01:59:11;;;;;;;22.10;8.57;;;;;;;5.74;73.00;102160.09;5055267;28;20484;-65
2023/02/09 02:01:37;;;;;;;26.20;9.75;;;;;;;5.85;72.56;102154.66;5055058;28;20033;-65
2023/02/09 02:04:03;;;;;;;30.90;10.23;;;;;;;5.73;73.21;102150.38;5053587;28;20031;-67
2023/02/09 02:06:30;;;;;;;26.10;8.73;;;;;;;5.63;73.24;102145.88;5054143;28;20052;-65
2023/02/09 02:08:59;;;;;;;27.20;9.40;;;;;;;5.68;73.44;102132.09;5055050;28;20036;-65
2023/02/09 02:11:28;;;;;;;25.75;9.30;;;;;;;5.72;73.35;102125.50;5055100;28;20067;-65
2023/02/09 02:13:55;;;;;;;19.35;8.35;;;;;;;5.62;73.49;102114.78;5053595;28;20025;-65
2023/02/09 02:16:30;;;;;;;25.65;9.27;;;;;;;5.75;73.44;102116.38;5053716;28;20063;-64
2023/02/09 02:19:36;;;;;;;25.90;9.48;;;;;;;5.72;72.96;102089.94;5054757;28;20035;-66
2023/02/09 02:22:05;;;;;;;;;;;;;;;5.74;73.33;102104.00;5054921;28;20032;-65
2023/02/09 02:24:36;;;;;;;23.63;8.57;;;;;;;5.77;73.11;102101.91;5053350;28;20356;-65
2023/02/09 02:27:05;;;;;;;22.98;9.23;;;;;;;5.74;73.87;102098.69;5053980;28;20032;-65
2023/02/09 02:30:02;;;;;;;23.65;8.95;;;;;;;5.62;74.30;102096.09;5054014;28;20025;-65
2023/02/09 02:32:58;;;;;;;28.30;8.73;;;;;;;5.68;74.10;102081.34;5054237;28;20055;-65
2023/02/09 02:35:35;;;;;;;27.27;10.18;;;;;;;5.71;74.27;102074.91;5054390;28;20021;-65
2023/02/09 02:38:39;;;;;;;21.58;8.50;;;;;;;5.75;73.53;102066.47;5054513;28;20116;-65
2023/02/09 02:41:20;;;;;;;28.05;9.27;;;;;;;5.79;73.70;102064.38;5030216;28;20096;-65
2023/02/09 02:43:48;;;;;;;27.05;8.57;;;;;;;5.73;74.17;102049.75;5054018;28;20062;-65
2023/02/09 02:46:31;;;;;;;27.25;9.05;;;;;;;5.61;74.09;102035.66;5054303;28;20076;-65
2023/02/09 02:49:10;;;;;;;29.13;8.77;;;;;;;5.64;74.27;102027.38;5052932;28;20024;-65
2023/02/09 02:51:41;;;;;;;26.92;9.77;;;;;;;5.71;74.58;102022.34;5054552;28;20483;-65
2023/02/09 02:54:27;;;;;;;30.27;9.88;;;;;;;5.75;74.64;102028.25;5052839;28;20052;-65
2023/02/09 02:56:58;;;;;;;21.73;7.72;;;;;;;5.63;74.92;102016.84;5053066;28;20029;-65
2023/02/09 02:59:31;;;;;;;24.33;9.25;;;;;;;5.70;74.77;102025.16;5053963;28;20464;-64
2023/02/09 03:02:03;;;;;;;33.35;8.85;;;;;;;5.75;74.69;102031.75;5054027;28;20479;-65
2023/02/09 03:04:30;;;;;;;27.60;8.65;;;;;;;5.72;74.89;102032.03;5054070;28;20025;-65
2023/02/09 03:06:55;;;;;;;27.35;9.05;;;;;;;5.71;75.04;102026.84;5054232;28;20112;-65
2023/02/09 03:09:21;;;;;;;29.38;9.80;;;;;;;5.50;75.30;102000.25;5052301;28;20028;-65
2023/02/09 03:11:55;;;;;;;27.20;9.38;;;;;;;5.51;75.56;102002.75;5053096;28;20463;-65
2023/02/09 03:14:26;;;;;;;23.60;8.07;;;;;;;5.75;75.05;102021.06;5052920;28;20104;-65
2023/02/09 03:16:59;;;;;;;22.10;8.70;;;;;;;5.71;74.91;102010.81;5053023;28;20033;-65
2023/02/09 03:19:50;;;;;;;22.58;8.35;;;;;;;5.84;75.02;102020.25;5052900;28;20033;-65
2023/02/09 03:22:25;;;;;;;30.35;9.15;;;;;;;5.92;74.46;102005.34;5053419;28;20021;-65
2023/02/09 03:25:14;;;;;;;32.47;9.68;;;;;;;5.87;74.47;101997.78;5052111;28;20316;-64
2023/02/09 03:27:50;;;;;;;25.42;8.60;;;;;;;5.95;74.08;101989.91;5053066;28;20029;-65
2023/02/09 03:30:17;;;;;;;23.75;8.68;;;;;;;5.86;74.31;101978.22;5053593;28;20021;-65
2023/02/09 03:32:45;;;;;;;20.70;8.85;;;;;;;5.97;74.41;101992.47;5053411;28;20501;-65
2023/02/09 03:35:15;;;;;;;23.10;8.65;;;;;;;5.94;74.24;101982.91;5053294;28;20092;-65
2023/02/09 03:37:41;;;;;;;32.22;9.50;;;;;;;5.79;74.22;101963.72;5053357;28;20175;-65
2023/02/09 03:40:07;;;;;;;24.42;8.70;;;;;;;5.89;74.64;101985.09;5052180;28;20123;-65
2023/02/09 03:42:32;;;;;;;23.70;8.13;;;;;;;5.82;74.90;101970.63;5051474;28;20509;-65
2023/02/09 03:44:58;;;;;;;24.20;8.52;;;;;;;5.92;74.79;101976.81;5051520;28;20037;-65
2023/02/09 03:47:23;;;;;;;25.08;9.25;;;;;;;5.84;74.41;101958.81;5052841;28;20035;-65
2023/02/09 03:49:49;;;;;;;26.05;8.48;;;;;;;5.97;74.40;101974.59;5053147;28;20025;-65
2023/02/09 03:52:15;;;;;;;23.17;8.23;;;;;;;5.93;74.51;101970.53;5051439;28;20033;-65
2023/02/09 03:54:41;;;;;;;22.35;8.02;;;;;;;6.01;74.07;101965.31;5051053;28;20035;-65
2023/02/09 03:57:06;;;;;;;26.65;8.88;;;;;;;5.80;73.97;101917.34;5054071;28;20037;-65
2023/02/09 03:59:36;;;;;;;21.73;7.50;;;;;;;5.98;74.33;101952.25;5051753;28;20033;-65
2023/02/09 04:02:04;;;;;;;21.08;8.65;;;;;;;5.87;74.52;101942.50;5052892;28;20071;-65
2023/02/09 04:04:30;;;;;;;22.13;8.25;;;;;;;5.86;74.38;101958.66;5051596;28;20028;-65
2023/02/09 04:06:56;;;;;;;18.70;7.78;;;;;;;5.93;73.70;101959.84;5034886;28;20044;-65
2023/02/09 04:09:22;;;;;;;22.85;8.15;;;;;;;5.97;73.62;101955.91;5052733;28;20025;-65
2023/02/09 04:11:48;;;;;;;24.55;8.48;;;;;;;5.78;73.65;101934.50;5052922;28;20052;-65
2023/02/09 04:14:14;;;;;;;18.55;7.85;;;;;;;6.04;73.34;101965.03;5052866;28;20433;-65
2023/02/09 04:16:40;;;;;;;20.25;7.82;;;;;;;5.84;73.01;101933.94;5052267;28;20459;-68
2023/02/09 04:19:07;;;;;;;20.45;7.97;;;;;;;6.09;72.33;101960.13;5050772;28;20032;-65
2023/02/09 04:21:33;;;;;;;24.33;8.30;;;;;;;6.14;71.69;101957.03;5052506;28;20028;-64
2023/02/09 04:23:58;;;;;;;22.92;8.52;;;;;;;6.13;72.00;101954.50;5052763;28;20040;-65
2023/02/09 04:26:24;;;;;;;31.17;9.05;;;;;;;6.13;71.74;101949.16;5052786;28;20029;-65
2023/02/09 04:28:49;;;;;;;21.88;8.15;;;;;;;6.22;71.26;101948.28;5051446;28;20055;-65
2023/02/09 04:31:15;;;;;;;19.52;8.30;;;;;;;6.20;70.92;101936.91;5052469;28;20074;-65
2023/02/09 04:33:40;;;;;;;21.30;8.35;;;;;;;6.25;71.60;101942.66;5034703;28;20386;-65
2023/02/09 04:36:07;;;;;;;26.58;8.63;;;;;;;6.15;71.52;101945.34;5051365;28;20100;-64
2023/02/09 04:38:33;;;;;;;26.00;8.65;;;;;;;6.01;71.63;101935.94;5052869;28;20032;-65
2023/02/09 04:40:59;;;;;;;27.13;8.27;;;;;;;6.17;71.77;101937.19;5053237;28;20029;-64
2023/02/09 04:43:25;;;;;;;26.02;8.85;;;;;;;6.10;71.88;101924.41;5052449;28;20495;-65
2023/02/09 04:45:51;;;;;;;21.73;8.68;;;;;;;6.18;71.91;101936.19;5050834;28;20438;-65
2023/02/09 04:48:19;;;;;;;23.90;8.43;;;;;;;6.09;72.26;101941.41;5051195;28;20036;-65
2023/02/09 04:50:45;;;;;;;27.10;9.07;;;;;;;6.09;72.10;101935.22;5050816;28;20390;-65
2023/02/09 04:53:11;;;;;;;26.70;8.32;;;;;;;6.11;72.24;101923.41;5052751;28;20100;-65
2023/02/09 04:55:38;;;;;;;21.52;8.38;;;;;;;6.19;71.84;101924.50;5051774;28;20017;-65
2023/02/09 05:00:48;;;;;;;22.50;8.13;;;;;;;6.22;71.46;101916.22;5051744;28;20115;-64
2023/02/09 05:03:13;;;;;;;22.30;8.02;;;;;;;6.22;71.59;101916.22;5052433;28;20289;-65
2023/02/09 05:05:40;;;;;;;25.58;8.77;;;;;;;6.22;71.59;101914.38;5052273;28;20383;-65
2023/02/09 05:08:06;;;;;;;20.92;8.10;;;;;;;6.10;72.13;101904.84;5051609;28;20029;-66
2023/02/09 05:10:32;;;;;;;22.05;8.07;;;;;;;6.23;71.71;101893.88;5051456;28;20027;-64
2023/02/09 05:12:57;;;;;;;23.25;8.55;;;;;;;6.16;71.87;101879.38;5052042;28;20068;-65
2023/02/09 05:15:22;;;;;;;21.00;8.20;;;;;;;5.92;71.67;101866.44;5051974;28;20061;-65
2023/02/09 05:17:48;;;;;;;23.63;7.85;;;;;;;6.04;71.62;101890.22;5050651;28;20191;-65
2023/02/09 05:20:13;;;;;;;15.48;7.30;;;;;;;6.08;70.80;101886.28;5050806;28;20514;-65
2023/02/09 05:22:39;;;;;;;18.85;7.95;;;;;;;6.06;71.29;101884.72;5055855;28;20072;-64
2023/02/09 05:25:04;;;;;;;22.60;7.35;;;;;;;5.97;71.13;101878.44;5056054;28;20050;-65
2023/02/09 05:27:30;;;;;;;23.75;8.10;;;;;;;6.06;70.27;101860.69;5054682;28;20028;-65
2023/02/09 05:29:55;;;;;;;21.15;7.95;;;;;;;5.86;70.55;101835.78;5055941;28;20021;-65
2023/02/09 05:32:21;;;;;;;17.52;8.05;;;;;;;5.98;70.74;101872.09;5054787;28;20124;-65
2023/02/09 05:34:46;;;;;;;24.33;8.10;;;;;;;5.99;70.84;101868.41;5055654;28;20029;-65
2023/02/09 05:37:12;;;;;;;23.27;8.52;;;;;;;5.99;70.92;101878.28;5054407;28;20164;-65
2023/02/09 05:39:37;;;;;;;27.20;8.70;;;;;;;5.46;70.83;101788.75;5054946;28;20032;-65
2023/02/09 05:42:14;;;;;;;19.63;8.57;;;;;;;6.02;70.75;101868.13;5055525;28;20476;-65
2023/02/09 05:44:41;;;;;;;18.70;8.65;;;;;;;5.97;70.90;101881.09;5054023;28;20051;-65
2023/02/09 05:47:07;;;;;;;23.17;9.05;;;;;;;6.02;71.06;101872.66;5054124;28;20070;-65
2023/02/09 05:49:33;;;;;;;22.55;8.20;;;;;;;5.86;71.38;101865.16;5053355;28;20032;-65
2023/02/09 05:51:58;;;;;;;28.25;9.55;;;;;;;6.03;71.33;101863.66;5055493;28;20079;-65
2023/02/09 05:54:23;;;;;;;20.58;9.05;;;;;;;6.03;71.30;101863.66;5055351;28;20059;-65
2023/02/09 05:56:49;;;;;;;21.85;9.02;;;;;;;6.04;71.37;101866.19;5055234;28;20032;-64
2023/02/09 05:59:14;;;;;;;23.30;9.07;;;;;;;6.00;71.87;101879.97;5055302;28;20467;-65
2023/02/09 06:01:40;;;;;;;25.80;9.63;;;;;;;5.78;72.03;101830.34;5054453;28;20083;-64
2023/02/09 06:04:06;;;;;;;26.58;10.13;;;;;;;5.79;72.62;101840.03;5053860;28;20409;-65
2023/02/09 06:06:31;;;;;;;29.70;10.00;;;;;;;5.94;72.89;101862.69;5055171;28;20029;-64
2023/02/09 06:08:57;;;;;;;21.15;9.68;;;;;;;5.86;73.04;101854.50;5055286;28;20033;-65
2023/02/09 06:11:22;;;;;;;27.92;10.75;;;;;;;5.39;72.91;101766.28;5053776;28;20491;-64
2023/02/09 06:13:48;;;;;;;26.17;10.10;;;;;;;5.92;73.41;101845.91;5053864;28;20029;-65
2023/02/09 06:16:13;;;;;;;27.50;10.38;;;;;;;5.91;73.15;101838.88;5053771;28;20117;-64
2023/02/09 06:18:39;;;;;;;26.23;11.13;;;;;;;5.86;73.70;101851.81;5054580;28;20480;-65
2023/02/09 06:21:05;;;;;;;23.23;10.48;;;;;;;5.93;73.94;101861.00;5054550;28;20040;-65
2023/02/09 06:23:30;;;;;;;27.80;10.82;;;;;;;5.94;74.00;101853.84;5036825;28;20056;-65
2023/02/09 06:25:56;;;;;;;24.08;9.98;;;;;;;5.74;74.30;101840.47;5054678;28;20076;-65
2023/02/09 06:28:22;;;;;;;24.92;10.85;;;;;;;5.87;74.17;101848.19;5053559;28;20484;-64
2023/02/09 06:30:52;;;;;;;24.63;10.23;;;;;;;5.78;75.23;101857.03;5054483;28;20369;-65
2023/02/09 06:33:18;;;;;;;27.33;11.18;;;;;;;5.88;75.18;101847.19;5052828;28;20067;-65
2023/02/09 06:35:44;;;;;;;31.23;11.57;;;;;;;5.98;75.20;101844.53;5054016;28;20043;-64
2023/02/09 06:38:09;;;;;;;26.80;11.32;;;;;;;6.10;74.75;101848.75;5036448;28;20028;-65
2023/02/09 06:40:35;;;;;;;25.40;11.45;;;;;;;6.04;74.96;101839.47;5052840;28;20375;-65
2023/02/09 06:43:00;;;;;;;23.40;11.25;;;;;;;6.15;74.88;101841.13;5053207;28;20032;-64
2023/02/09 06:45:26;;;;;;;25.38;11.70;;;;;;;5.97;75.03;101826.84;5054344;28;20095;-65
2023/02/09 06:47:51;;;;;;;29.77;11.25;;;;;;;6.19;75.30;101821.16;5052852;28;20420;-64
2023/02/09 06:50:18;;;;;;;29.52;11.77;;;;;;;6.11;75.88;101832.53;5053392;28;20049;-64
2023/02/09 06:52:43;;;;;;;29.02;12.05;;;;;;;6.21;75.50;101839.69;5054102;28;20036;-64
2023/02/09 06:55:09;;;;;;;28.80;12.15;;;;;;;6.22;75.59;101830.69;5053217;28;20098;-65
2023/02/09 06:57:35;;;;;;;29.83;12.20;;;;;;;6.25;75.42;101833.06;5054124;28;20020;-65
2023/02/09 07:00:01;;;;;;;29.55;12.18;;;;;;;6.17;76.19;101832.97;5053969;28;20025;-65
2023/02/09 07:02:26;;;;;;;28.42;12.32;;;;;;;6.27;75.77;101817.75;5052793;28;20033;-65
2023/02/09 07:04:52;;;;;;;25.80;11.55;;;;;;;6.34;75.49;101824.19;5052764;28;20036;-65
2023/02/09 07:07:17;;;;;;;30.48;12.50;;;;;;;6.39;75.83;101829.94;5054095;28;20028;-65
2023/02/09 07:09:43;;;;;;;25.90;12.30;;;;;;;6.43;75.29;101828.66;5051664;28;20036;-65
2023/02/09 07:12:08;;;;;;;31.75;12.30;;;;;;;6.38;76.07;101838.09;5053864;28;20364;-65
2023/02/09 07:14:33;;;;;;;26.70;11.93;;;;;;;6.40;75.98;101839.63;5055363;28;20044;-65
2023/02/09 07:16:59;;;;;;;24.50;11.70;;;;;;;6.40;76.47;101825.44;5053990;28;20432;-65
2023/02/09 07:19:24;;;;;;;23.63;13.30;;;;;;;6.46;76.36;101832.88;5053757;28;20033;-64
2023/02/09 07:21:50;;;;;;;31.20;13.50;;;;;;;6.25;76.39;101799.16;5035972;28;20025;-65
2023/02/09 07:24:15;;;;;;;26.55;12.85;;;;;;;6.54;76.43;101832.97;5035834;28;20472;-65
2023/02/09 07:26:41;;;;;;;28.92;12.15;;;;;;;6.53;76.65;101842.00;5053582;28;20041;-65
2023/02/09 07:29:07;;;;;;;30.40;13.07;;;;;;;6.53;76.98;101845.50;5052334;28;20514;-65
2023/02/09 07:31:32;;;;;;;33.45;13.95;;;;;;;6.28;77.78;101808.72;5053440;28;20024;-65
2023/02/09 07:33:57;;;;;;;29.13;12.88;;;;;;;6.26;77.58;101800.88;5051991;28;20024;-65
2023/02/09 07:36:23;;;;;;;28.52;13.30;;;;;;;6.59;77.22;101838.72;5053653;28;20348;-65
2023/02/09 07:38:49;;;;;;;30.23;12.80;;;;;;;6.55;77.58;101827.47;5051832;28;20017;-71
2023/02/09 07:41:20;;;;;;;31.42;14.15;;;;;;;6.57;77.68;101820.13;5052814;28;20025;-65
2023/02/09 07:43:46;;;;;;;34.50;12.88;;;;;;;6.61;77.51;101825.19;5052232;28;20044;-64
2023/02/09 07:46:15;;;;;;;28.40;13.02;;;;;;;6.65;77.88;101821.22;5053455;28;20025;-64
2023/02/09 07:48:40;;;;;;;33.22;14.15;;;;;;;6.52;78.70;101818.88;5052954;28;20029;-65
2023/02/09 07:51:06;;;;;;;30.55;14.00;;;;;;;6.66;78.07;101806.88;5053057;28;20017;-65
2023/02/09 07:53:32;;;;;;;35.03;14.07;;;;;;;6.55;78.37;101790.03;5053287;28;20055;-65
2023/02/09 07:55:57;;;;;;;31.88;13.90;;;;;;;6.59;78.35;101780.72;5052671;28;20123;-65
2023/02/09 07:58:23;;;;;;;31.88;14.55;;;;;;;6.79;78.23;101804.69;5051994;28;20231;-65
2023/02/09 08:00:50;;;;;;;31.33;14.00;;;;;;;6.72;79.42;101798.25;5052827;28;20116;-65
2023/02/09 08:03:19;;;;;;;34.17;14.45;;;;;;;6.78;79.58;101800.31;5051508;28;20032;-66
2023/02/09 08:05:57;;;;;;;34.95;15.40;;;;;;;6.75;80.11;101795.28;5052560;28;20052;-65
2023/02/09 08:08:22;;;;;;;37.45;14.50;;;;;;;6.75;80.40;101785.41;5052953;28;20067;-65
2023/02/09 08:10:48;;;;;;;39.72;15.13;;;;;;;6.80;80.20;101787.66;5053234;28;20411;-65
2023/02/09 08:13:14;;;;;;;38.83;16.05;;;;;;;6.71;80.73;101780.53;5053138;28;20124;-65
2023/02/09 08:15:44;;;;;;;37.60;15.15;;;;;;;6.76;81.54;101772.91;5050616;28;20036;-65
2023/02/09 08:18:14;;;;;;;43.42;14.45;;;;;;;6.82;81.18;101781.16;5053594;28;20052;-65
2023/02/09 08:20:42;;;;;;;40.10;15.45;;;;;;;6.63;82.15;101770.56;5052359;28;20029;-65
2023/02/09 08:23:32;;;;;;;46.15;15.25;;;;;;;6.64;83.26;101780.28;5052075;28;20072;-70
2023/02/09 08:26:00;;;;;;;33.95;14.25;;;;;;;6.74;82.76;101783.72;5044016;28;20037;-65
2023/02/09 08:28:25;;;;;;;36.30;13.20;;;;;;;6.76;83.22;101773.75;5051250;28;20021;-64
2023/02/09 08:30:51;;;;;;;37.08;14.02;;;;;;;6.81;83.37;101776.78;5050796;28;20052;-66
2023/02/09 08:33:17;;;;;;;35.28;14.20;;;;;;;6.80;83.26;101772.44;5050498;28;20427;-65
2023/02/09 08:35:42;;;;;;;38.83;14.88;;;;;;;6.79;83.59;101778.78;5052506;28;20044;-65
2023/02/09 08:38:08;;;;;;;38.28;14.07;;;;;;;6.85;83.84;101771.13;5051038;28;20029;-65
2023/02/09 08:40:39;;;;;;;36.67;13.65;;;;;;;6.85;84.18;101779.16;5052145;28;20029;-65
2023/02/09 08:43:04;;;;;;;36.20;13.15;;;;;;;6.80;83.87;101764.41;5052480;28;20402;-65
2023/02/09 08:45:29;;;;;;;30.15;12.95;;;;;;;6.85;84.38;101779.16;5052196;28;20033;-65
2023/02/09 08:47:55;;;;;;;47.60;14.13;;;;;;;6.88;84.51;101784.22;5051992;28;20036;-64
2023/02/09 08:50:21;;;;;;;38.25;14.20;;;;;;;6.96;83.95;101777.13;5050206;28;20082;-65
2023/02/09 08:52:46;;;;;;;40.05;13.88;;;;;;;6.89;84.34;101770.69;5050908;28;20033;-65
2023/02/09 08:55:12;;;;;;;42.28;14.13;;;;;;;7.00;84.31;101788.38;5050990;28;20029;-65
2023/02/09 08:57:37;;;;;;;43.22;13.65;;;;;;;6.94;85.04;101773.75;5051330;28;20112;-65
2023/02/09 09:00:04;;;;;;;37.47;14.05;;;;;;;6.92;84.77;101769.53;5052904;28;20039;-64
2023/02/09 09:02:30;;;;;;;40.17;13.10;;;;;;;7.02;84.63;101770.34;5050837;28;20571;-65
2023/02/09 09:04:55;;;;;;;40.05;13.30;;;;;;;6.93;85.27;101745.31;5050793;28;20041;-65
2023/02/09 09:07:20;;;;;;;40.83;12.95;;;;;;;7.05;84.82;101764.66;5050776;28;20041;-64
2023/02/09 09:09:47;;;;;;;38.78;13.48;;;;;;;7.04;84.83;101771.84;5051720;28;20033;-65
2023/02/09 09:12:12;;;;;;;38.53;13.43;;;;;;;7.00;85.35;101765.13;5052242;28;20480;-65
2023/02/09 09:14:38;;;;;;;37.97;12.23;;;;;;;6.95;86.00;101766.56;5052404;28;20047;-65
2023/02/09 09:17:03;;;;;;;35.90;12.68;;;;;;;6.95;85.69;101770.06;5034396;28;20036;-65
2023/02/09 09:19:29;;;;;;;45.83;14.10;;;;;;;7.06;85.84;101785.91;5051379;28;20063;-65
2023/02/09 09:21:55;;;;;;;36.92;12.60;;;;;;;7.17;85.45;101794.72;5049565;28;20037;-65
2023/02/09 09:24:22;;;;;;;49.75;13.38;;;;;;;7.16;85.61;101790.38;5054458;28;20041;-65
2023/02/09 09:26:48;;;;;;;27.40;11.85;;;;;;;7.04;86.80;101798.59;5050362;28;20547;-65
2023/02/09 09:29:13;;;;;;;38.70;12.48;;;;;;;7.08;86.58;101785.75;5034075;28;20083;-65
2023/02/09 09:31:38;;;;;;;32.95;11.30;;;;;;;7.17;86.59;101786.69;5051775;28;20523;-65
2023/02/09 09:34:04;;;;;;;44.92;12.70;;;;;;;7.25;86.23;101786.75;5034185;28;20021;-65
2023/02/09 09:36:30;;;;;;;43.97;13.00;;;;;;;7.30;85.84;101792.50;5052072;28;20020;-65
2023/02/09 09:38:55;;;;;;;39.72;13.38;;;;;;;7.37;85.97;101793.56;5051809;28;20098;-65
2023/02/09 09:41:27;;;;;;;40.00;12.07;;;;;;;7.31;86.72;101796.84;5051543;28;20029;-65
2023/02/09 09:43:54;;;;;;;38.80;13.10;;;;;;;7.38;86.13;101795.25;5050613;28;20040;-65
2023/02/09 09:46:29;;;;;;;41.80;11.68;;;;;;;7.42;86.27;101799.31;5050516;28;20111;-65
2023/02/09 09:48:57;;;;;;;41.42;11.95;;;;;;;7.54;85.86;101805.25;5051750;28;20079;-65
2023/02/09 09:51:32;;;;;;;35.80;11.15;;;;;;;7.55;86.58;101801.59;5051929;28;20056;-65
2023/02/09 09:54:00;;;;;;;32.42;9.77;;;;;;;7.62;86.60;101799.16;5050497;28;20025;-65
2023/02/09 09:56:28;;;;;;;41.53;11.57;;;;;;;7.60;87.04;101790.41;5051610;28;20021;-65
2023/02/09 09:58:54;;;;;;;42.90;11.18;;;;;;;7.69;87.78;101797.53;5050122;28;20021;-65
2023/02/09 10:01:22;;;;;;;43.28;12.10;;;;;;;7.90;86.32;101806.03;5049569;28;20033;-66
2023/02/09 10:03:48;;;;;;;40.38;11.27;;;;;;;7.89;86.39;101798.16;5050157;28;20060;-63
2023/02/09 10:06:20;;;;;;;47.80;11.13;;;;;;;7.92;86.75;101801.38;5049935;28;20079;-65
2023/02/09 10:08:59;;;;;;;44.00;11.30;;;;;;;8.04;86.50;101815.34;5054293;28;20025;-65
2023/02/09 10:11:32;;;;;;;33.10;10.38;;;;;;;8.05;86.86;101792.91;5053723;28;20115;-68
2023/02/09 10:13:57;;;;;;;39.67;10.32;;;;;;;8.14;87.02;101817.91;5054698;28;20115;-66
2023/02/09 10:16:26;;;;;;;39.65;10.73;;;;;;;8.25;86.62;101812.28;5053320;28;20262;-65
2023/02/09 10:19:02;;;;;;;40.15;10.77;;;;;;;8.18;86.85;101814.78;5055068;28;20115;-64
2023/02/09 10:21:34;;;;;;;37.45;11.20;;;;;;;8.17;87.29;101831.00;5053235;28;20063;-65
2023/02/09 10:23:59;;;;;;;39.20;11.20;;;;;;;8.12;87.27;101820.75;5053412;28;20060;-65
2023/02/09 10:26:31;;;;;;;41.42;11.23;;;;;;;8.14;87.46;101829.47;5054816;28;20024;-65
2023/02/09 10:28:59;;;;;;;41.08;11.10;;;;;;;8.19;87.50;101831.69;5053839;28;20178;-65
2023/02/09 10:31:30;;;;;;;45.60;10.45;;;;;;;8.28;86.73;101833.44;5054744;28;20021;-65
2023/02/09 10:34:11;;;;;;;41.30;11.00;;;;;;;8.17;87.11;101831.00;5054822;28;20430;-65
2023/02/09 10:36:53;;;;;;;46.00;12.70;;;;;;;8.15;87.24;101823.13;5054367;28;20032;-65
2023/02/09 10:39:29;;;;;;;38.45;10.48;;;;;;;8.16;87.69;101837.38;5053372;28;20108;-65
2023/02/09 10:41:59;;;;;;;39.67;11.70;;;;;;;8.24;87.69;101832.91;5054094;28;20078;-65
2023/02/09 10:44:34;;;;;;;48.65;11.52;;;;;;;8.27;86.96;101830.91;5054389;28;20055;-65
2023/02/09 10:47:17;;;;;;;45.60;11.13;;;;;;;8.31;87.70;101822.41;5054933;28;20024;-65
2023/02/09 10:49:42;;;;;;;48.15;11.57;;;;;;;8.22;87.07;101818.81;5052577;28;20467;-69
2023/02/09 10:52:11;;;;;;;48.15;11.57;;;;;;;8.24;87.38;101810.59;5052878;28;20043;-65
2023/02/09 10:54:46;;;;;;;47.20;11.43;;;;;;;8.21;87.68;101818.94;5053099;28;20063;-66
2023/02/09 10:57:49;;;;;;;41.88;10.75;;;;;;;8.21;86.86;101803.72;5054704;28;20025;-65
2023/02/09 11:00:15;;;;;;;46.22;11.73;;;;;;;8.07;88.24;101804.31;5051891;28;20071;-65
2023/02/09 11:03:21;;;;;;;46.92;12.13;;;;;;;8.19;87.43;101796.84;5054229;28;20017;-65
2023/02/09 11:06:08;;;;;;;48.97;11.57;;;;;;;8.27;87.01;101799.56;5048344;28;20044;-65
2023/02/09 11:08:38;;;;;;;51.47;12.07;;;;;;;8.33;87.69;101796.25;5054218;28;20033;-65
2023/02/09 11:11:10;;;;;;;48.22;11.65;;;;;;;8.42;87.37;101787.25;5052471;28;20571;-68
2023/02/09 11:13:39;;;;;;;47.47;11.27;;;;;;;8.51;86.87;101795.34;5053625;28;20484;-65
2023/02/09 11:16:43;;;;;;;44.65;10.73;;;;;;;8.50;87.63;101805.22;5052319;28;20037;-65
2023/02/09 11:19:51;;;;;;;46.50;12.77;;;;;;;8.63;87.75;101792.22;5051404;28;20100;-65
2023/02/09 11:22:29;;;;;;;52.97;11.82;;;;;;;8.57;87.89;101800.91;5030771;28;20094;-65
2023/02/09 11:25:19;;;;;;;42.08;10.52;;;;;;;8.58;88.57;101796.41;5052702;28;20070;-65
2023/02/09 11:27:58;;;;;;;48.45;11.68;;;;;;;8.53;88.43;101787.97;5053968;28;20021;-64
2023/02/09 11:30:42;;;;;;;41.95;11.68;;;;;;;8.45;88.93;101788.78;5053620;28;20025;-64
2023/02/09 11:33:35;;;;;;;45.42;11.07;;;;;;;8.42;89.01;101798.00;5053884;28;20506;-65
2023/02/09 11:36:19;;;;;;;52.55;10.60;;;;;;;8.50;89.00;101782.94;5054235;28;20032;-65